Terminal Aerodrome Forecast
Issued by NWS Louisville, KY

Home | Current Version | Previous Version | Text Only | Print | Product List | Glossary On
Versions: 1 2 3 4 5 6 7 8 9 10 11 12 13 14 15 16 17 18 19 20 21 22 23 24
000
FTUS43 KLMK 291900 AAA
TAFLEX
TAF AMD
KLEX 291931Z 2920/3018 26005KT P6SM VCTS SCT040CB
      TEMPO 2920/2922 VRB15G25KT 1SM TSRA BKN025CB
     FM300400 28004KT 5SM BR SCT150
     FM301000 33004KT 3SM BR BKN025
     FM301400 35006KT P6SM FEW030=

USA.gov is the U.S. government's official web portal to all federal, state and local government web resources and services.